sensor_id;sensor_type;location;lat;lon;timestamp;temperature;humidity
73322;DHT22;61549;37.044;22.128;2022-11-21T00:00:56;21.20;70.10
73322;DHT22;61549;37.044;22.128;2022-11-21T00:03:22;21.20;70.30
73322;DHT22;61549;37.044;22.128;2022-11-21T00:05:49;21.10;70.50
73322;DHT22;61549;37.044;22.128;2022-11-21T00:08:17;21.10;70.40
73322;DHT22;61549;37.044;22.128;2022-11-21T00:10:44;21.10;70.70
73322;DHT22;61549;37.044;22.128;2022-11-21T00:13:16;21.10;70.50
73322;DHT22;61549;37.044;22.128;2022-11-21T00:15:42;21.10;70.50
73322;DHT22;61549;37.044;22.128;2022-11-21T00:18:10;21.20;70.30
73322;DHT22;61549;37.044;22.128;2022-11-21T00:20:40;21.20;70.30
73322;DHT22;61549;37.044;22.128;2022-11-21T00:23:06;21.20;70.10
73322;DHT22;61549;37.044;22.128;2022-11-21T00:25:33;21.10;69.40
73322;DHT22;61549;37.044;22.128;2022-11-21T00:27:58;21.10;69.60
73322;DHT22;61549;37.044;22.128;2022-11-21T00:30:24;21.10;69.60
73322;DHT22;61549;37.044;22.128;2022-11-21T00:32:51;21.00;69.50
73322;DHT22;61549;37.044;22.128;2022-11-21T00:35:17;21.00;69.70
73322;DHT22;61549;37.044;22.128;2022-11-21T00:37:43;21.00;69.50
73322;DHT22;61549;37.044;22.128;2022-11-21T00:40:10;21.00;69.10
73322;DHT22;61549;37.044;22.128;2022-11-21T00:42:36;21.00;69.40
73322;DHT22;61549;37.044;22.128;2022-11-21T00:45:03;21.00;69.20
73322;DHT22;61549;37.044;22.128;2022-11-21T00:47:29;21.00;69.60
73322;DHT22;61549;37.044;22.128;2022-11-21T00:49:54;21.00;69.40
73322;DHT22;61549;37.044;22.128;2022-11-21T00:52:20;20.90;69.50
73322;DHT22;61549;37.044;22.128;2022-11-21T00:54:46;21.00;69.50
73322;DHT22;61549;37.044;22.128;2022-11-21T00:57:12;20.90;69.40
73322;DHT22;61549;37.044;22.128;2022-11-21T00:59:38;20.90;69.40
73322;DHT22;61549;37.044;22.128;2022-11-21T01:02:03;20.90;69.30
73322;DHT22;61549;37.044;22.128;2022-11-21T01:04:34;20.80;69.40
73322;DHT22;61549;37.044;22.128;2022-11-21T01:07:00;20.80;69.40
73322;DHT22;61549;37.044;22.128;2022-11-21T01:09:26;20.80;69.60
73322;DHT22;61549;37.044;22.128;2022-11-21T01:11:53;20.80;69.70
73322;DHT22;61549;37.044;22.128;2022-11-21T01:14:19;20.70;67.80
73322;DHT22;61549;37.044;22.128;2022-11-21T01:16:45;20.70;68.70
73322;DHT22;61549;37.044;22.128;2022-11-21T01:19:11;20.80;69.40
73322;DHT22;61549;37.044;22.128;2022-11-21T01:21:37;20.80;69.10
73322;DHT22;61549;37.044;22.128;2022-11-21T01:24:03;20.70;69.00
73322;DHT22;61549;37.044;22.128;2022-11-21T01:26:30;20.70;67.20
73322;DHT22;61549;37.044;22.128;2022-11-21T01:28:57;20.70;67.20
73322;DHT22;61549;37.044;22.128;2022-11-21T01:31:26;20.60;68.50
73322;DHT22;61549;37.044;22.128;2022-11-21T01:33:52;20.70;69.30
73322;DHT22;61549;37.044;22.128;2022-11-21T01:36:24;20.60;67.60
73322;DHT22;61549;37.044;22.128;2022-11-21T01:38:52;20.50;65.70
73322;DHT22;61549;37.044;22.128;2022-11-21T01:41:23;20.50;65.90
73322;DHT22;61549;37.044;22.128;2022-11-21T01:43:49;20.50;65.00
73322;DHT22;61549;37.044;22.128;2022-11-21T01:46:18;20.60;65.30
73322;DHT22;61549;37.044;22.128;2022-11-21T01:54:27;20.30;68.30
73322;DHT22;61549;37.044;22.128;2022-11-21T01:59:30;19.90;70.50
73322;DHT22;61549;37.044;22.128;2022-11-21T02:01:59;20.00;71.20
73322;DHT22;61549;37.044;22.128;2022-11-21T02:04:29;20.20;70.80
73322;DHT22;61549;37.044;22.128;2022-11-21T02:06:56;20.30;70.20
73322;DHT22;61549;37.044;22.128;2022-11-21T02:09:23;20.50;69.80
73322;DHT22;61549;37.044;22.128;2022-11-21T02:12:00;20.60;69.50
73322;DHT22;61549;37.044;22.128;2022-11-21T02:14:27;20.60;69.20
73322;DHT22;61549;37.044;22.128;2022-11-21T02:16:56;20.70;69.30
73322;DHT22;61549;37.044;22.128;2022-11-21T02:25:07;20.70;66.90
73322;DHT22;61549;37.044;22.128;2022-11-21T02:27:34;20.60;66.80
73322;DHT22;61549;37.044;22.128;2022-11-21T02:30:05;20.50;68.40
73322;DHT22;61549;37.044;22.128;2022-11-21T02:32:34;20.60;69.40
73322;DHT22;61549;37.044;22.128;2022-11-21T02:35:00;20.60;69.70
73322;DHT22;61549;37.044;22.128;2022-11-21T02:37:26;20.50;69.40
73322;DHT22;61549;37.044;22.128;2022-11-21T02:39:52;20.50;69.40
73322;DHT22;61549;37.044;22.128;2022-11-21T02:42:33;20.50;69.70
73322;DHT22;61549;37.044;22.128;2022-11-21T02:47:39;20.60;70.10
73322;DHT22;61549;37.044;22.128;2022-11-21T02:52:49;20.50;70.40
73322;DHT22;61549;37.044;22.128;2022-11-21T02:55:15;20.50;70.10
73322;DHT22;61549;37.044;22.128;2022-11-21T02:57:41;20.50;70.00
73322;DHT22;61549;37.044;22.128;2022-11-21T03:00:09;20.50;70.30
73322;DHT22;61549;37.044;22.128;2022-11-21T03:02:36;20.50;70.50
73322;DHT22;61549;37.044;22.128;2022-11-21T03:05:03;20.50;70.20
73322;DHT22;61549;37.044;22.128;2022-11-21T03:07:29;20.50;70.40
73322;DHT22;61549;37.044;22.128;2022-11-21T03:09:56;20.50;70.50
73322;DHT22;61549;37.044;22.128;2022-11-21T03:12:21;20.50;70.80
73322;DHT22;61549;37.044;22.128;2022-11-21T03:14:47;20.50;70.80
73322;DHT22;61549;37.044;22.128;2022-11-21T03:17:13;20.40;70.50
73322;DHT22;61549;37.044;22.128;2022-11-21T03:19:39;20.40;70.80
73322;DHT22;61549;37.044;22.128;2022-11-21T03:22:05;20.40;71.00
73322;DHT22;61549;37.044;22.128;2022-11-21T03:24:31;20.40;71.30
73322;DHT22;61549;37.044;22.128;2022-11-21T03:26:57;20.40;71.30
73322;DHT22;61549;37.044;22.128;2022-11-21T03:29:23;20.40;71.00
73322;DHT22;61549;37.044;22.128;2022-11-21T03:31:48;20.40;71.10
73322;DHT22;61549;37.044;22.128;2022-11-21T03:34:14;20.40;70.90
73322;DHT22;61549;37.044;22.128;2022-11-21T03:36:40;20.40;70.90
73322;DHT22;61549;37.044;22.128;2022-11-21T03:39:06;20.40;71.00
73322;DHT22;61549;37.044;22.128;2022-11-21T03:41:32;20.40;70.90
73322;DHT22;61549;37.044;22.128;2022-11-21T03:44:06;20.40;70.70
73322;DHT22;61549;37.044;22.128;2022-11-21T03:46:34;20.30;70.60
73322;DHT22;61549;37.044;22.128;2022-11-21T03:49:01;20.30;71.10
73322;DHT22;61549;37.044;22.128;2022-11-21T03:51:27;20.30;70.30
73322;DHT22;61549;37.044;22.128;2022-11-21T03:53:53;20.30;70.30
73322;DHT22;61549;37.044;22.128;2022-11-21T03:56:19;20.20;70.50
73322;DHT22;61549;37.044;22.128;2022-11-21T03:58:45;20.10;69.10
73322;DHT22;61549;37.044;22.128;2022-11-21T04:01:18;20.10;70.10
73322;DHT22;61549;37.044;22.128;2022-11-21T04:03:47;20.10;70.20
73322;DHT22;61549;37.044;22.128;2022-11-21T04:06:15;20.20;69.90
73322;DHT22;61549;37.044;22.128;2022-11-21T04:08:41;20.20;70.40
73322;DHT22;61549;37.044;22.128;2022-11-21T04:11:07;20.20;70.40
73322;DHT22;61549;37.044;22.128;2022-11-21T04:13:33;20.20;69.60
73322;DHT22;61549;37.044;22.128;2022-11-21T04:15:59;20.20;67.80
73322;DHT22;61549;37.044;22.128;2022-11-21T04:18:25;20.00;66.30
73322;DHT22;61549;37.044;22.128;2022-11-21T04:21:05;20.00;67.00
73322;DHT22;61549;37.044;22.128;2022-11-21T04:23:33;20.20;66.70
73322;DHT22;61549;37.044;22.128;2022-11-21T04:25:59;20.10;68.80
73322;DHT22;61549;37.044;22.128;2022-11-21T04:28:25;20.20;69.90
73322;DHT22;61549;37.044;22.128;2022-11-21T04:30:51;20.30;70.30
73322;DHT22;61549;37.044;22.128;2022-11-21T04:33:18;20.40;70.70
73322;DHT22;61549;37.044;22.128;2022-11-21T04:35:45;20.40;70.90
73322;DHT22;61549;37.044;22.128;2022-11-21T04:38:11;20.20;70.70
73322;DHT22;61549;37.044;22.128;2022-11-21T04:40:38;20.20;70.00
73322;DHT22;61549;37.044;22.128;2022-11-21T04:43:04;20.30;70.10
73322;DHT22;61549;37.044;22.128;2022-11-21T04:45:30;20.40;69.80
73322;DHT22;61549;37.044;22.128;2022-11-21T04:47:56;20.40;70.60
73322;DHT22;61549;37.044;22.128;2022-11-21T04:50:22;20.40;70.50
73322;DHT22;61549;37.044;22.128;2022-11-21T04:52:54;20.40;70.40
73322;DHT22;61549;37.044;22.128;2022-11-21T04:55:24;20.30;70.60
73322;DHT22;61549;37.044;22.128;2022-11-21T04:57:52;20.30;70.90
73322;DHT22;61549;37.044;22.128;2022-11-21T05:00:18;20.30;70.70
73322;DHT22;61549;37.044;22.128;2022-11-21T05:02:45;20.20;70.80
73322;DHT22;61549;37.044;22.128;2022-11-21T05:05:10;20.20;70.60
73322;DHT22;61549;37.044;22.128;2022-11-21T05:07:37;20.20;70.70
73322;DHT22;61549;37.044;22.128;2022-11-21T05:10:04;20.20;70.60
73322;DHT22;61549;37.044;22.128;2022-11-21T05:12:30;20.10;70.80
73322;DHT22;61549;37.044;22.128;2022-11-21T05:15:15;20.10;71.10
73322;DHT22;61549;37.044;22.128;2022-11-21T05:17:40;20.10;71.40
73322;DHT22;61549;37.044;22.128;2022-11-21T05:20:07;20.10;71.60
73322;DHT22;61549;37.044;22.128;2022-11-21T05:22:33;20.10;71.70
73322;DHT22;61549;37.044;22.128;2022-11-21T05:24:59;20.10;71.70
73322;DHT22;61549;37.044;22.128;2022-11-21T05:27:24;20.10;72.00
73322;DHT22;61549;37.044;22.128;2022-11-21T05:29:50;20.10;72.20
73322;DHT22;61549;37.044;22.128;2022-11-21T05:32:16;20.10;72.40
73322;DHT22;61549;37.044;22.128;2022-11-21T05:34:42;20.10;72.40
73322;DHT22;61549;37.044;22.128;2022-11-21T05:37:08;20.10;72.30
73322;DHT22;61549;37.044;22.128;2022-11-21T05:39:33;20.10;72.30
73322;DHT22;61549;37.044;22.128;2022-11-21T05:41:59;20.10;72.30
73322;DHT22;61549;37.044;22.128;2022-11-21T05:44:25;20.10;72.40
73322;DHT22;61549;37.044;22.128;2022-11-21T05:46:51;20.10;72.40
73322;DHT22;61549;37.044;22.128;2022-11-21T05:49:17;20.10;72.40
73322;DHT22;61549;37.044;22.128;2022-11-21T05:51:43;20.10;72.30
73322;DHT22;61549;37.044;22.128;2022-11-21T05:54:12;20.10;72.10
73322;DHT22;61549;37.044;22.128;2022-11-21T05:56:39;20.10;71.90
73322;DHT22;61549;37.044;22.128;2022-11-21T05:59:05;20.10;71.90
73322;DHT22;61549;37.044;22.128;2022-11-21T06:01:31;20.10;71.50
73322;DHT22;61549;37.044;22.128;2022-11-21T06:04:15;20.00;71.40
73322;DHT22;61549;37.044;22.128;2022-11-21T06:06:41;20.10;71.60
73322;DHT22;61549;37.044;22.128;2022-11-21T06:09:07;20.10;71.50
73322;DHT22;61549;37.044;22.128;2022-11-21T06:11:33;20.00;71.70
73322;DHT22;61549;37.044;22.128;2022-11-21T06:13:59;20.10;72.10
73322;DHT22;61549;37.044;22.128;2022-11-21T06:16:24;20.10;72.30
73322;DHT22;61549;37.044;22.128;2022-11-21T06:18:51;20.10;72.70
73322;DHT22;61549;37.044;22.128;2022-11-21T06:21:19;20.20;72.80
73322;DHT22;61549;37.044;22.128;2022-11-21T06:23:46;20.20;73.20
73322;DHT22;61549;37.044;22.128;2022-11-21T06:26:14;20.30;73.40
73322;DHT22;61549;37.044;22.128;2022-11-21T06:28:41;20.50;73.40
73322;DHT22;61549;37.044;22.128;2022-11-21T06:31:14;20.50;72.80
73322;DHT22;61549;37.044;22.128;2022-11-21T06:33:42;20.50;72.60
73322;DHT22;61549;37.044;22.128;2022-11-21T06:36:15;20.60;72.40
73322;DHT22;61549;37.044;22.128;2022-11-21T06:38:41;20.60;72.50
73322;DHT22;61549;37.044;22.128;2022-11-21T06:41:12;20.60;72.70
73322;DHT22;61549;37.044;22.128;2022-11-21T06:43:39;20.70;72.80
73322;DHT22;61549;37.044;22.128;2022-11-21T06:46:05;20.60;73.00
73322;DHT22;61549;37.044;22.128;2022-11-21T06:48:36;20.60;73.20
73322;DHT22;61549;37.044;22.128;2022-11-21T06:51:07;20.70;72.80
73322;DHT22;61549;37.044;22.128;2022-11-21T06:53:35;20.70;73.30
73322;DHT22;61549;37.044;22.128;2022-11-21T06:56:03;20.80;73.50
73322;DHT22;61549;37.044;22.128;2022-11-21T06:58:30;20.80;73.70
73322;DHT22;61549;37.044;22.128;2022-11-21T07:00:56;20.70;73.40
73322;DHT22;61549;37.044;22.128;2022-11-21T07:03:22;20.80;73.10
73322;DHT22;61549;37.044;22.128;2022-11-21T07:05:49;20.80;73.00
73322;DHT22;61549;37.044;22.128;2022-11-21T07:08:16;20.90;72.50
73322;DHT22;61549;37.044;22.128;2022-11-21T07:10:42;21.00;71.60
73322;DHT22;61549;37.044;22.128;2022-11-21T07:13:10;21.10;71.50
73322;DHT22;61549;37.044;22.128;2022-11-21T07:15:50;21.30;73.20
73322;DHT22;61549;37.044;22.128;2022-11-21T07:18:17;21.60;71.50
73322;DHT22;61549;37.044;22.128;2022-11-21T07:20:43;21.80;68.90
73322;DHT22;61549;37.044;22.128;2022-11-21T07:23:10;22.00;69.10
73322;DHT22;61549;37.044;22.128;2022-11-21T07:25:36;22.10;69.40
73322;DHT22;61549;37.044;22.128;2022-11-21T07:28:03;22.10;69.00
73322;DHT22;61549;37.044;22.128;2022-11-21T07:30:29;22.20;67.90
73322;DHT22;61549;37.044;22.128;2022-11-21T07:33:00;22.30;67.30
73322;DHT22;61549;37.044;22.128;2022-11-21T07:35:28;22.30;66.40
73322;DHT22;61549;37.044;22.128;2022-11-21T07:37:54;22.30;66.50
73322;DHT22;61549;37.044;22.128;2022-11-21T07:40:20;22.40;69.00
73322;DHT22;61549;37.044;22.128;2022-11-21T07:42:46;22.70;67.50
73322;DHT22;61549;37.044;22.128;2022-11-21T07:45:13;22.60;60.40
73322;DHT22;61549;37.044;22.128;2022-11-21T07:47:39;22.30;59.00
73322;DHT22;61549;37.044;22.128;2022-11-21T07:50:07;22.40;59.00
73322;DHT22;61549;37.044;22.128;2022-11-21T07:52:33;22.60;57.90
73322;DHT22;61549;37.044;22.128;2022-11-21T07:54:59;22.90;58.10
73322;DHT22;61549;37.044;22.128;2022-11-21T07:57:27;22.70;56.80
73322;DHT22;61549;37.044;22.128;2022-11-21T07:59:54;22.60;57.40
73322;DHT22;61549;37.044;22.128;2022-11-21T08:02:24;22.60;55.70
73322;DHT22;61549;37.044;22.128;2022-11-21T08:04:50;22.70;57.10
73322;DHT22;61549;37.044;22.128;2022-11-21T08:07:19;22.80;55.90
73322;DHT22;61549;37.044;22.128;2022-11-21T08:09:46;22.70;55.40
73322;DHT22;61549;37.044;22.128;2022-11-21T08:12:13;22.80;55.80
73322;DHT22;61549;37.044;22.128;2022-11-21T08:14:39;22.90;55.60
73322;DHT22;61549;37.044;22.128;2022-11-21T08:17:06;22.80;56.80
73322;DHT22;61549;37.044;22.128;2022-11-21T08:19:32;23.00;55.00
73322;DHT22;61549;37.044;22.128;2022-11-21T08:22:01;23.20;55.60
73322;DHT22;61549;37.044;22.128;2022-11-21T08:24:26;23.20;54.20
73322;DHT22;61549;37.044;22.128;2022-11-21T08:26:52;23.30;54.50
73322;DHT22;61549;37.044;22.128;2022-11-21T08:29:18;23.40;54.00
73322;DHT22;61549;37.044;22.128;2022-11-21T08:31:45;23.50;54.40
73322;DHT22;61549;37.044;22.128;2022-11-21T08:34:11;23.50;53.00
73322;DHT22;61549;37.044;22.128;2022-11-21T08:36:38;23.40;53.30
73322;DHT22;61549;37.044;22.128;2022-11-21T08:39:04;23.30;53.80
73322;DHT22;61549;37.044;22.128;2022-11-21T08:41:31;22.90;54.00
73322;DHT22;61549;37.044;22.128;2022-11-21T08:44:15;22.80;55.00
73322;DHT22;61549;37.044;22.128;2022-11-21T08:46:41;22.90;55.30
73322;DHT22;61549;37.044;22.128;2022-11-21T08:49:07;23.00;54.50
73322;DHT22;61549;37.044;22.128;2022-11-21T08:51:34;23.10;54.30
73322;DHT22;61549;37.044;22.128;2022-11-21T08:54:00;23.20;56.60
73322;DHT22;61549;37.044;22.128;2022-11-21T08:56:27;23.00;57.20
73322;DHT22;61549;37.044;22.128;2022-11-21T08:58:53;22.80;58.90
73322;DHT22;61549;37.044;22.128;2022-11-21T09:01:20;22.30;62.10
73322;DHT22;61549;37.044;22.128;2022-11-21T09:03:46;22.00;64.10
73322;DHT22;61549;37.044;22.128;2022-11-21T09:06:12;21.50;63.80
73322;DHT22;61549;37.044;22.128;2022-11-21T09:08:38;21.10;66.30
73322;DHT22;61549;37.044;22.128;2022-11-21T09:11:06;20.80;65.70
73322;DHT22;61549;37.044;22.128;2022-11-21T09:13:33;20.90;66.10
73322;DHT22;61549;37.044;22.128;2022-11-21T09:15:59;21.00;59.90
73322;DHT22;61549;37.044;22.128;2022-11-21T09:18:44;21.30;56.30
73322;DHT22;61549;37.044;22.128;2022-11-21T09:21:16;21.40;57.80
73322;DHT22;61549;37.044;22.128;2022-11-21T09:23:43;21.70;58.00
73322;DHT22;61549;37.044;22.128;2022-11-21T09:26:09;22.00;60.70
73322;DHT22;61549;37.044;22.128;2022-11-21T09:28:35;22.30;57.20
73322;DHT22;61549;37.044;22.128;2022-11-21T09:31:02;22.50;60.00
73322;DHT22;61549;37.044;22.128;2022-11-21T09:33:29;22.70;60.30
73322;DHT22;61549;37.044;22.128;2022-11-21T09:35:59;22.80;57.30
73322;DHT22;61549;37.044;22.128;2022-11-21T09:38:26;22.70;52.70
73322;DHT22;61549;37.044;22.128;2022-11-21T09:44:18;22.60;60.60
73322;DHT22;61549;37.044;22.128;2022-11-21T09:47:16;22.60;63.30
73322;DHT22;61549;37.044;22.128;2022-11-21T09:49:47;22.40;61.20
73322;DHT22;61549;37.044;22.128;2022-11-21T09:52:16;22.50;62.70
73322;DHT22;61549;37.044;22.128;2022-11-21T09:54:49;22.60;64.30
73322;DHT22;61549;37.044;22.128;2022-11-21T09:57:35;22.90;65.00
73322;DHT22;61549;37.044;22.128;2022-11-21T10:00:05;23.30;60.20
73322;DHT22;61549;37.044;22.128;2022-11-21T10:02:38;23.70;58.60
73322;DHT22;61549;37.044;22.128;2022-11-21T10:05:12;24.00;58.70
73322;DHT22;61549;37.044;22.128;2022-11-21T10:07:38;24.30;53.50
73322;DHT22;61549;37.044;22.128;2022-11-21T10:13:12;24.50;48.80
73322;DHT22;61549;37.044;22.128;2022-11-21T10:18:48;24.50;49.70
73322;DHT22;61549;37.044;22.128;2022-11-21T10:27:01;24.90;51.50
73322;DHT22;61549;37.044;22.128;2022-11-21T10:34:52;24.90;50.60
73322;DHT22;61549;37.044;22.128;2022-11-21T10:37:36;24.70;53.90
73322;DHT22;61549;37.044;22.128;2022-11-21T10:42:56;24.50;55.80
73322;DHT22;61549;37.044;22.128;2022-11-21T10:45:22;24.20;55.00
73322;DHT22;61549;37.044;22.128;2022-11-21T10:47:50;24.00;55.90
73322;DHT22;61549;37.044;22.128;2022-11-21T10:50:45;23.80;56.10
73322;DHT22;61549;37.044;22.128;2022-11-21T10:56:15;23.40;55.30
73322;DHT22;61549;37.044;22.128;2022-11-21T10:58:44;23.20;56.90
73322;DHT22;61549;37.044;22.128;2022-11-21T11:01:26;23.00;57.40
73322;DHT22;61549;37.044;22.128;2022-11-21T11:06:42;22.70;59.40
73322;DHT22;61549;37.044;22.128;2022-11-21T11:09:31;22.60;58.60
73322;DHT22;61549;37.044;22.128;2022-11-21T11:15:22;22.80;60.90
73322;DHT22;61549;37.044;22.128;2022-11-21T11:17:55;22.90;59.10
73322;DHT22;61549;37.044;22.128;2022-11-21T11:22:58;23.30;53.40
73322;DHT22;61549;37.044;22.128;2022-11-21T11:25:25;23.30;56.70
73322;DHT22;61549;37.044;22.128;2022-11-21T11:27:51;23.60;57.30
73322;DHT22;61549;37.044;22.128;2022-11-21T11:30:18;23.70;53.50
73322;DHT22;61549;37.044;22.128;2022-11-21T11:32:44;23.70;50.30
73322;DHT22;61549;37.044;22.128;2022-11-21T11:38:07;23.60;54.70
73322;DHT22;61549;37.044;22.128;2022-11-21T11:40:36;23.50;56.20
73322;DHT22;61549;37.044;22.128;2022-11-21T11:52:30;23.30;57.10
73322;DHT22;61549;37.044;22.128;2022-11-21T11:55:05;23.40;53.90
73322;DHT22;61549;37.044;22.128;2022-11-21T11:57:34;23.60;46.90
73322;DHT22;61549;37.044;22.128;2022-11-21T12:00:24;23.70;46.00
73322;DHT22;61549;37.044;22.128;2022-11-21T12:03:22;23.80;45.50
73322;DHT22;61549;37.044;22.128;2022-11-21T12:06:02;23.70;45.30
73322;DHT22;61549;37.044;22.128;2022-11-21T12:08:44;23.90;50.50
73322;DHT22;61549;37.044;22.128;2022-11-21T12:20:16;24.60;41.50
73322;DHT22;61549;37.044;22.128;2022-11-21T12:22:44;24.70;42.30
73322;DHT22;61549;37.044;22.128;2022-11-21T12:25:13;24.90;43.60
73322;DHT22;61549;37.044;22.128;2022-11-21T12:27:40;24.80;41.50
73322;DHT22;61549;37.044;22.128;2022-11-21T12:33:18;25.10;41.50
73322;DHT22;61549;37.044;22.128;2022-11-21T12:41:53;25.40;39.60
73322;DHT22;61549;37.044;22.128;2022-11-21T12:52:52;25.10;41.60
73322;DHT22;61549;37.044;22.128;2022-11-21T12:55:39;24.80;42.50
73322;DHT22;61549;37.044;22.128;2022-11-21T13:01:10;24.40;47.10
73322;DHT22;61549;37.044;22.128;2022-11-21T13:03:49;24.30;49.00
73322;DHT22;61549;37.044;22.128;2022-11-21T13:06:26;24.30;46.10
73322;DHT22;61549;37.044;22.128;2022-11-21T13:08:54;24.40;44.80
73322;DHT22;61549;37.044;22.128;2022-11-21T13:11:27;24.30;44.00
73322;DHT22;61549;37.044;22.128;2022-11-21T13:19:59;24.60;42.50
73322;DHT22;61549;37.044;22.128;2022-11-21T13:25:03;24.60;41.50
73322;DHT22;61549;37.044;22.128;2022-11-21T13:27:40;24.50;42.50
73322;DHT22;61549;37.044;22.128;2022-11-21T13:32:45;24.40;42.40
73322;DHT22;61549;37.044;22.128;2022-11-21T13:38:07;24.40;43.60
73322;DHT22;61549;37.044;22.128;2022-11-21T13:40:36;24.40;42.90
73322;DHT22;61549;37.044;22.128;2022-11-21T13:45:40;24.30;44.30
73322;DHT22;61549;37.044;22.128;2022-11-21T13:48:33;24.30;44.00
73322;DHT22;61549;37.044;22.128;2022-11-21T14:08:30;23.70;44.80
73322;DHT22;61549;37.044;22.128;2022-11-21T14:10:57;23.70;45.20
73322;DHT22;61549;37.044;22.128;2022-11-21T14:13:32;23.70;45.10
73322;DHT22;61549;37.044;22.128;2022-11-21T14:18:44;23.70;45.50
73322;DHT22;61549;37.044;22.128;2022-11-21T14:21:26;23.60;45.50
73322;DHT22;61549;37.044;22.128;2022-11-21T14:24:17;23.50;45.90
73322;DHT22;61549;37.044;22.128;2022-11-21T14:26:46;23.40;46.10
73322;DHT22;61549;37.044;22.128;2022-11-21T14:29:18;23.30;45.80
73322;DHT22;61549;37.044;22.128;2022-11-21T14:31:48;23.20;46.30
73322;DHT22;61549;37.044;22.128;2022-11-21T14:34:26;23.10;47.20
73322;DHT22;61549;37.044;22.128;2022-11-21T14:37:01;23.10;48.50
73322;DHT22;61549;37.044;22.128;2022-11-21T14:39:30;23.00;48.40
73322;DHT22;61549;37.044;22.128;2022-11-21T14:42:00;23.00;48.10
73322;DHT22;61549;37.044;22.128;2022-11-21T14:44:27;22.80;47.80
73322;DHT22;61549;37.044;22.128;2022-11-21T14:47:15;22.80;47.50
73322;DHT22;61549;37.044;22.128;2022-11-21T14:49:49;22.80;48.30
73322;DHT22;61549;37.044;22.128;2022-11-21T14:52:25;22.80;48.30
73322;DHT22;61549;37.044;22.128;2022-11-21T14:54:57;22.70;48.00
73322;DHT22;61549;37.044;22.128;2022-11-21T14:57:29;22.60;49.00
73322;DHT22;61549;37.044;22.128;2022-11-21T14:59:58;22.70;52.30
73322;DHT22;61549;37.044;22.128;2022-11-21T15:02:27;22.70;55.60
73322;DHT22;61549;37.044;22.128;2022-11-21T15:04:59;22.60;55.20
73322;DHT22;61549;37.044;22.128;2022-11-21T15:07:27;22.40;51.20
73322;DHT22;61549;37.044;22.128;2022-11-21T15:09:53;21.90;52.90
73322;DHT22;61549;37.044;22.128;2022-11-21T15:12:27;21.40;53.60
73322;DHT22;61549;37.044;22.128;2022-11-21T15:17:24;21.50;55.90
73322;DHT22;61549;37.044;22.128;2022-11-21T15:22:41;21.70;55.00
73322;DHT22;61549;37.044;22.128;2022-11-21T15:25:14;21.60;54.70
73322;DHT22;61549;37.044;22.128;2022-11-21T15:27:40;21.60;55.00
73322;DHT22;61549;37.044;22.128;2022-11-21T15:32:57;21.60;55.60
73322;DHT22;61549;37.044;22.128;2022-11-21T15:35:49;21.60;55.90
73322;DHT22;61549;37.044;22.128;2022-11-21T15:43:42;21.50;58.00
73322;DHT22;61549;37.044;22.128;2022-11-21T15:46:24;21.30;59.10
73322;DHT22;61549;37.044;22.128;2022-11-21T15:48:51;21.20;59.50
73322;DHT22;61549;37.044;22.128;2022-11-21T15:51:22;21.10;59.80
73322;DHT22;61549;37.044;22.128;2022-11-21T15:53:49;21.00;59.70
73322;DHT22;61549;37.044;22.128;2022-11-21T15:56:17;20.90;59.70
73322;DHT22;61549;37.044;22.128;2022-11-21T15:58:44;20.80;59.60
73322;DHT22;61549;37.044;22.128;2022-11-21T16:03:41;20.70;59.60
73322;DHT22;61549;37.044;22.128;2022-11-21T16:06:07;20.60;60.10
73322;DHT22;61549;37.044;22.128;2022-11-21T16:08:33;20.50;60.10
73322;DHT22;61549;37.044;22.128;2022-11-21T16:10:59;20.50;61.10
73322;DHT22;61549;37.044;22.128;2022-11-21T16:13:25;20.30;60.90
73322;DHT22;61549;37.044;22.128;2022-11-21T16:15:52;20.20;61.00
73322;DHT22;61549;37.044;22.128;2022-11-21T16:18:18;20.20;61.20
73322;DHT22;61549;37.044;22.128;2022-11-21T16:20:44;20.10;61.20
73322;DHT22;61549;37.044;22.128;2022-11-21T16:23:11;20.00;61.70
73322;DHT22;61549;37.044;22.128;2022-11-21T16:25:52;20.00;61.50
73322;DHT22;61549;37.044;22.128;2022-11-21T16:28:18;19.90;61.40
73322;DHT22;61549;37.044;22.128;2022-11-21T16:30:44;19.90;61.40
73322;DHT22;61549;37.044;22.128;2022-11-21T16:33:10;19.90;61.40
73322;DHT22;61549;37.044;22.128;2022-11-21T16:35:39;19.90;61.10
73322;DHT22;61549;37.044;22.128;2022-11-21T16:38:09;19.80;61.00
73322;DHT22;61549;37.044;22.128;2022-11-21T16:40:35;19.80;60.70
73322;DHT22;61549;37.044;22.128;2022-11-21T16:43:10;19.80;60.30
73322;DHT22;61549;37.044;22.128;2022-11-21T16:45:37;19.80;60.00
73322;DHT22;61549;37.044;22.128;2022-11-21T16:48:04;19.80;60.30
73322;DHT22;61549;37.044;22.128;2022-11-21T16:50:31;19.80;60.20
73322;DHT22;61549;37.044;22.128;2022-11-21T16:52:57;19.80;60.00
73322;DHT22;61549;37.044;22.128;2022-11-21T16:55:23;19.70;59.90
73322;DHT22;61549;37.044;22.128;2022-11-21T16:57:49;19.70;59.70
73322;DHT22;61549;37.044;22.128;2022-11-21T17:00:16;19.70;59.60
73322;DHT22;61549;37.044;22.128;2022-11-21T17:02:42;19.60;59.60
73322;DHT22;61549;37.044;22.128;2022-11-21T17:05:08;19.60;59.90
73322;DHT22;61549;37.044;22.128;2022-11-21T17:07:34;19.60;60.00
73322;DHT22;61549;37.044;22.128;2022-11-21T17:10:00;19.60;60.30
73322;DHT22;61549;37.044;22.128;2022-11-21T17:12:26;19.50;59.60
73322;DHT22;61549;37.044;22.128;2022-11-21T17:14:52;19.50;59.60
73322;DHT22;61549;37.044;22.128;2022-11-21T17:17:18;19.50;60.00
73322;DHT22;61549;37.044;22.128;2022-11-21T17:19:44;19.50;59.80
73322;DHT22;61549;37.044;22.128;2022-11-21T17:22:10;19.50;59.50
73322;DHT22;61549;37.044;22.128;2022-11-21T17:24:36;19.50;59.40
73322;DHT22;61549;37.044;22.128;2022-11-21T17:27:04;19.40;59.50
73322;DHT22;61549;37.044;22.128;2022-11-21T17:29:30;19.50;59.30
73322;DHT22;61549;37.044;22.128;2022-11-21T17:31:56;19.50;59.10
73322;DHT22;61549;37.044;22.128;2022-11-21T17:34:22;19.50;59.60
73322;DHT22;61549;37.044;22.128;2022-11-21T17:36:48;19.50;59.50
73322;DHT22;61549;37.044;22.128;2022-11-21T17:39:14;19.60;59.60
73322;DHT22;61549;37.044;22.128;2022-11-21T17:41:43;19.60;58.90
73322;DHT22;61549;37.044;22.128;2022-11-21T17:44:12;19.60;59.20
73322;DHT22;61549;37.044;22.128;2022-11-21T17:46:40;19.70;58.80
73322;DHT22;61549;37.044;22.128;2022-11-21T17:49:06;19.70;59.00
73322;DHT22;61549;37.044;22.128;2022-11-21T17:51:32;19.70;60.00
73322;DHT22;61549;37.044;22.128;2022-11-21T17:53:59;19.70;61.40